Terminal Aerodrome Forecast
Issued by NWS

Home | Current Version | Previous Version | Text Only | Print | Product List | Glossary On
Versions: 1 2 3 4 5 6 7 8 9 10 11 12 13
000
FTUS45 KPIH 270520
TAFSUN
TAF
KSUN 270520Z 2706/2806 32010KT P6SM SCT060 BKN120
     FM270900 32009KT P6SM VCSH SCT080 BKN120
     FM271800 16008KT P6SM -SHRA VCTS OVC060CB
     FM280400 31008KT P6SM BKN150
      AMD LTD TO CLD VIS AND WIND TIL 271300=

USA.gov is the U.S. government's official web portal to all federal, state and local government web resources and services.